sensor_id;sensor_type;location;lat;lon;timestamp;pressure;altitude;pressure_sealevel;temperature;humidity
22352;BME280;11343;43.246;27.978;2022-09-20T00:00:15;99526.09;;;15.03;nan
22352;BME280;11343;43.246;27.978;2022-09-20T00:03:21;99522.50;;;15.04;nan
22352;BME280;11343;43.246;27.978;2022-09-20T00:06:28;99522.75;;;15.01;nan
22352;BME280;11343;43.246;27.978;2022-09-20T00:09:34;99516.78;;;14.99;nan
22352;BME280;11343;43.246;27.978;2022-09-20T00:12:39;99531.34;;;15.03;nan
22352;BME280;11343;43.246;27.978;2022-09-20T00:15:45;99522.75;;;15.01;nan
22352;BME280;11343;43.246;27.978;2022-09-20T00:18:51;99509.97;;;14.87;nan
22352;BME280;11343;43.246;27.978;2022-09-20T00:21:58;99516.34;;;14.84;nan
22352;BME280;11343;43.246;27.978;2022-09-20T00:25:04;99506.72;;;14.74;nan
22352;BME280;11343;43.246;27.978;2022-09-20T00:28:10;99503.31;;;14.83;nan
22352;BME280;11343;43.246;27.978;2022-09-20T00:31:16;99500.16;;;14.89;nan
22352;BME280;11343;43.246;27.978;2022-09-20T00:34:22;99483.69;;;14.87;nan
22352;BME280;11343;43.246;27.978;2022-09-20T00:37:46;99493.38;;;14.86;nan
22352;BME280;11343;43.246;27.978;2022-09-20T00:40:51;99480.09;;;14.88;nan
22352;BME280;11343;43.246;27.978;2022-09-20T00:43:56;99475.09;;;14.85;nan
22352;BME280;11343;43.246;27.978;2022-09-20T00:47:03;99480.06;;;14.78;nan
22352;BME280;11343;43.246;27.978;2022-09-20T00:50:13;99481.19;;;14.85;nan
22352;BME280;11343;43.246;27.978;2022-09-20T00:53:24;99471.81;;;14.83;nan
22352;BME280;11343;43.246;27.978;2022-09-20T00:56:32;99457.72;;;14.84;nan
22352;BME280;11343;43.246;27.978;2022-09-20T00:59:39;99457.00;;;14.82;nan
22352;BME280;11343;43.246;27.978;2022-09-20T01:02:46;99459.34;;;14.85;nan
22352;BME280;11343;43.246;27.978;2022-09-20T01:05:52;99445.25;;;14.86;nan
22352;BME280;11343;43.246;27.978;2022-09-20T01:09:01;99444.16;;;14.88;nan
22352;BME280;11343;43.246;27.978;2022-09-20T01:12:08;99457.72;;;14.84;nan
22352;BME280;11343;43.246;27.978;2022-09-20T01:15:15;99450.78;;;14.83;nan
22352;BME280;11343;43.246;27.978;2022-09-20T01:18:20;99452.81;;;14.79;nan
22352;BME280;11343;43.246;27.978;2022-09-20T01:21:27;99446.34;;;14.83;nan
22352;BME280;11343;43.246;27.978;2022-09-20T01:24:35;99458.38;;;14.86;nan
22352;BME280;11343;43.246;27.978;2022-09-20T01:27:44;99472.94;;;14.90;nan
22352;BME280;11343;43.246;27.978;2022-09-20T01:30:52;99474.16;;;14.86;nan
22352;BME280;11343;43.246;27.978;2022-09-20T01:34:02;99468.47;;;14.81;nan
22352;BME280;11343;43.246;27.978;2022-09-20T01:37:09;99483.97;;;14.84;nan
22352;BME280;11343;43.246;27.978;2022-09-20T01:40:19;99487.56;;;14.83;nan
22352;BME280;11343;43.246;27.978;2022-09-20T01:43:34;99485.91;;;14.82;nan
22352;BME280;11343;43.246;27.978;2022-09-20T01:46:41;99491.16;;;14.82;nan
22352;BME280;11343;43.246;27.978;2022-09-20T01:49:50;99486.59;;;14.84;nan
22352;BME280;11343;43.246;27.978;2022-09-20T01:53:10;99486.72;;;14.82;nan
22352;BME280;11343;43.246;27.978;2022-09-20T02:00:00;99481.16;;;14.76;nan
22352;BME280;11343;43.246;27.978;2022-09-20T02:03:16;99483.09;;;14.74;nan
22352;BME280;11343;43.246;27.978;2022-09-20T02:06:41;99479.63;;;14.73;nan
22352;BME280;11343;43.246;27.978;2022-09-20T02:10:12;99479.75;;;14.72;nan
22352;BME280;11343;43.246;27.978;2022-09-20T02:13:26;99463.03;;;14.73;nan
22352;BME280;11343;43.246;27.978;2022-09-20T02:16:38;99482.84;;;14.77;nan
22352;BME280;11343;43.246;27.978;2022-09-20T02:20:06;99470.56;;;14.87;nan
22352;BME280;11343;43.246;27.978;2022-09-20T02:23:18;99487.88;;;14.89;nan
22352;BME280;11343;43.246;27.978;2022-09-20T02:26:31;99488.69;;;14.90;nan
22352;BME280;11343;43.246;27.978;2022-09-20T02:29:42;99504.72;;;14.87;nan
22352;BME280;11343;43.246;27.978;2022-09-20T02:32:56;99497.66;;;14.87;nan
22352;BME280;11343;43.246;27.978;2022-09-20T02:36:12;99509.53;;;14.82;nan
22352;BME280;11343;43.246;27.978;2022-09-20T02:39:21;99505.50;;;14.78;nan
22352;BME280;11343;43.246;27.978;2022-09-20T02:42:28;99512.16;;;14.82;nan
22352;BME280;11343;43.246;27.978;2022-09-20T02:45:38;99519.63;;;14.77;nan
22352;BME280;11343;43.246;27.978;2022-09-20T02:48:48;99518.19;;;14.73;nan
22352;BME280;11343;43.246;27.978;2022-09-20T02:51:59;99518.72;;;14.67;nan
22352;BME280;11343;43.246;27.978;2022-09-20T02:55:10;99518.97;;;14.64;nan
22352;BME280;11343;43.246;27.978;2022-09-20T02:58:23;99526.16;;;14.62;nan
22352;BME280;11343;43.246;27.978;2022-09-20T03:01:35;99523.00;;;14.68;nan
22352;BME280;11343;43.246;27.978;2022-09-20T03:04:47;99518.72;;;14.67;nan
22352;BME280;11343;43.246;27.978;2022-09-20T03:08:03;99520.84;;;14.52;nan
22352;BME280;11343;43.246;27.978;2022-09-20T03:11:15;99523.59;;;14.50;nan
22352;BME280;11343;43.246;27.978;2022-09-20T03:14:23;99526.19;;;14.41;nan
22352;BME280;11343;43.246;27.978;2022-09-20T03:17:33;99513.38;;;14.36;nan
22352;BME280;11343;43.246;27.978;2022-09-20T03:20:54;99530.59;;;14.29;nan
22352;BME280;11343;43.246;27.978;2022-09-20T03:24:04;99531.13;;;14.23;nan
22352;BME280;11343;43.246;27.978;2022-09-20T03:27:15;99531.50;;;14.19;nan
22352;BME280;11343;43.246;27.978;2022-09-20T03:30:26;99544.75;;;14.17;nan
22352;BME280;11343;43.246;27.978;2022-09-20T03:33:39;99540.97;;;14.10;nan
22352;BME280;11343;43.246;27.978;2022-09-20T03:36:56;99532.66;;;14.05;nan
22352;BME280;11343;43.246;27.978;2022-09-20T03:43:30;99550.81;;;13.97;nan
22352;BME280;11343;43.246;27.978;2022-09-20T03:46:42;99549.13;;;13.96;nan
22352;BME280;11343;43.246;27.978;2022-09-20T03:49:57;99532.00;;;13.92;nan
22352;BME280;11343;43.246;27.978;2022-09-20T03:56:38;99549.88;;;13.87;nan
22352;BME280;11343;43.246;27.978;2022-09-20T03:59:57;99557.28;;;13.82;nan
22352;BME280;11343;43.246;27.978;2022-09-20T04:03:20;99568.50;;;13.84;nan
22352;BME280;11343;43.246;27.978;2022-09-20T04:09:55;99570.06;;;13.75;nan
22352;BME280;11343;43.246;27.978;2022-09-20T04:13:14;99573.75;;;13.84;nan
22352;BME280;11343;43.246;27.978;2022-09-20T04:16:28;99556.78;;;13.88;nan
22352;BME280;11343;43.246;27.978;2022-09-20T04:19:37;99558.13;;;13.82;nan
22352;BME280;11343;43.246;27.978;2022-09-20T04:22:44;99564.44;;;13.80;nan
22352;BME280;11343;43.246;27.978;2022-09-20T04:25:54;99563.53;;;13.69;nan
22352;BME280;11343;43.246;27.978;2022-09-20T04:29:12;99566.59;;;13.75;nan
22352;BME280;11343;43.246;27.978;2022-09-20T04:32:22;99567.31;;;13.65;nan
22352;BME280;11343;43.246;27.978;2022-09-20T04:35:33;99566.84;;;13.71;nan
22352;BME280;11343;43.246;27.978;2022-09-20T04:38:59;99565.88;;;13.72;nan
22352;BME280;11343;43.246;27.978;2022-09-20T04:45:48;99575.09;;;13.67;nan
22352;BME280;11343;43.246;27.978;2022-09-20T04:49:05;99572.34;;;13.68;nan
22352;BME280;11343;43.246;27.978;2022-09-20T04:52:29;99574.59;;;13.73;nan
22352;BME280;11343;43.246;27.978;2022-09-20T04:55:47;99578.31;;;13.59;nan
22352;BME280;11343;43.246;27.978;2022-09-20T04:59:01;99578.31;;;13.59;nan
22352;BME280;11343;43.246;27.978;2022-09-20T05:02:36;99585.72;;;13.54;nan
22352;BME280;11343;43.246;27.978;2022-09-20T05:09:18;99598.81;;;13.54;nan
22352;BME280;11343;43.246;27.978;2022-09-20T05:12:31;99585.09;;;13.51;nan
22352;BME280;11343;43.246;27.978;2022-09-20T05:15:40;99577.38;;;13.49;nan
22352;BME280;11343;43.246;27.978;2022-09-20T05:19:15;99582.38;;;13.52;nan
22352;BME280;11343;43.246;27.978;2022-09-20T05:25:54;99576.91;;;13.55;nan
22352;BME280;11343;43.246;27.978;2022-09-20T05:29:03;99574.13;;;13.68;nan
22352;BME280;11343;43.246;27.978;2022-09-20T05:32:13;99589.13;;;13.77;nan
22352;BME280;11343;43.246;27.978;2022-09-20T05:35:26;99580.28;;;13.89;nan
22352;BME280;11343;43.246;27.978;2022-09-20T05:38:38;99595.13;;;14.00;nan
22352;BME280;11343;43.246;27.978;2022-09-20T05:41:46;99587.47;;;14.08;nan
22352;BME280;11343;43.246;27.978;2022-09-20T05:45:00;99591.75;;;14.20;nan
22352;BME280;11343;43.246;27.978;2022-09-20T05:48:12;99582.25;;;15.02;nan
22352;BME280;11343;43.246;27.978;2022-09-20T05:51:24;99579.47;;;15.64;nan
22352;BME280;11343;43.246;27.978;2022-09-20T05:54:41;99580.09;;;16.35;nan
22352;BME280;11343;43.246;27.978;2022-09-20T05:57:55;99572.44;;;16.80;nan
22352;BME280;11343;43.246;27.978;2022-09-20T06:01:06;99570.28;;;17.40;nan
22352;BME280;11343;43.246;27.978;2022-09-20T06:04:16;99575.19;;;17.63;nan
22352;BME280;11343;43.246;27.978;2022-09-20T06:07:30;99582.53;;;17.59;nan
22352;BME280;11343;43.246;27.978;2022-09-20T06:10:40;99595.13;;;17.47;nan
22352;BME280;11343;43.246;27.978;2022-09-20T06:14:01;99599.59;;;17.37;nan
22352;BME280;11343;43.246;27.978;2022-09-20T06:17:18;99617.31;;;17.54;nan
22352;BME280;11343;43.246;27.978;2022-09-20T06:20:28;99612.13;;;17.90;nan
22352;BME280;11343;43.246;27.978;2022-09-20T06:23:38;99615.06;;;18.05;nan
22352;BME280;11343;43.246;27.978;2022-09-20T06:26:43;99603.50;;;18.33;nan
22352;BME280;11343;43.246;27.978;2022-09-20T06:29:50;99597.22;;;18.16;nan
22352;BME280;11343;43.246;27.978;2022-09-20T06:32:58;99605.97;;;18.34;nan
22352;BME280;11343;43.246;27.978;2022-09-20T06:36:05;99603.56;;;18.23;nan
22352;BME280;11343;43.246;27.978;2022-09-20T06:39:27;99598.09;;;18.43;nan
22352;BME280;11343;43.246;27.978;2022-09-20T06:42:51;99616.84;;;18.67;nan
22352;BME280;11343;43.246;27.978;2022-09-20T06:45:58;99605.78;;;18.89;nan
22352;BME280;11343;43.246;27.978;2022-09-20T06:49:03;99613.31;;;19.02;nan
22352;BME280;11343;43.246;27.978;2022-09-20T06:52:12;99615.47;;;18.63;nan
22352;BME280;11343;43.246;27.978;2022-09-20T06:55:20;99618.84;;;18.91;nan
22352;BME280;11343;43.246;27.978;2022-09-20T06:58:32;99625.59;;;18.50;nan
22352;BME280;11343;43.246;27.978;2022-09-20T07:01:37;99630.50;;;18.62;nan
22352;BME280;11343;43.246;27.978;2022-09-20T07:04:43;99635.34;;;19.10;nan
22352;BME280;11343;43.246;27.978;2022-09-20T07:07:48;99646.53;;;19.04;nan
22352;BME280;11343;43.246;27.978;2022-09-20T07:10:55;99640.09;;;18.63;nan
22352;BME280;11343;43.246;27.978;2022-09-20T07:14:01;99652.06;;;19.11;nan
22352;BME280;11343;43.246;27.978;2022-09-20T07:17:06;99658.91;;;19.22;nan
22352;BME280;11343;43.246;27.978;2022-09-20T07:20:12;99651.09;;;19.46;nan
22352;BME280;11343;43.246;27.978;2022-09-20T07:23:20;99661.41;;;19.49;nan
22352;BME280;11343;43.246;27.978;2022-09-20T07:26:28;99652.19;;;19.61;nan
22352;BME280;11343;43.246;27.978;2022-09-20T07:29:33;99659.25;;;19.86;nan
22352;BME280;11343;43.246;27.978;2022-09-20T07:32:39;99656.38;;;19.72;nan
22352;BME280;11343;43.246;27.978;2022-09-20T07:35:45;99658.91;;;19.81;nan
22352;BME280;11343;43.246;27.978;2022-09-20T07:38:51;99658.28;;;19.87;nan
22352;BME280;11343;43.246;27.978;2022-09-20T07:41:58;99660.97;;;20.12;nan
22352;BME280;11343;43.246;27.978;2022-09-20T07:45:05;99659.69;;;20.32;nan
22352;BME280;11343;43.246;27.978;2022-09-20T07:48:11;99642.13;;;20.15;nan
22352;BME280;11343;43.246;27.978;2022-09-20T07:51:17;99651.75;;;20.24;nan
22352;BME280;11343;43.246;27.978;2022-09-20T07:54:24;99658.03;;;20.15;nan
22352;BME280;11343;43.246;27.978;2022-09-20T07:57:34;99647.38;;;19.99;nan
22352;BME280;11343;43.246;27.978;2022-09-20T08:00:40;99672.53;;;19.94;nan
22352;BME280;11343;43.246;27.978;2022-09-20T08:03:45;99655.34;;;20.07;nan
22352;BME280;11343;43.246;27.978;2022-09-20T08:06:50;99666.06;;;20.55;nan
22352;BME280;11343;43.246;27.978;2022-09-20T08:09:56;99668.41;;;20.83;nan
22352;BME280;11343;43.246;27.978;2022-09-20T08:13:04;99673.88;;;21.22;nan
22352;BME280;11343;43.246;27.978;2022-09-20T08:16:29;99668.91;;;21.02;nan
22352;BME280;11343;43.246;27.978;2022-09-20T08:19:35;99667.41;;;20.92;nan
22352;BME280;11343;43.246;27.978;2022-09-20T08:22:42;99659.47;;;21.16;nan
22352;BME280;11343;43.246;27.978;2022-09-20T08:25:59;99657.22;;;21.52;nan
22352;BME280;11343;43.246;27.978;2022-09-20T08:29:07;99650.03;;;21.61;nan
22352;BME280;11343;43.246;27.978;2022-09-20T08:32:12;99644.44;;;21.47;nan
22352;BME280;11343;43.246;27.978;2022-09-20T08:35:17;99653.25;;;21.95;nan
22352;BME280;11343;43.246;27.978;2022-09-20T08:38:25;99641.47;;;22.20;nan
22352;BME280;11343;43.246;27.978;2022-09-20T08:41:51;99643.41;;;22.04;nan
22352;BME280;11343;43.246;27.978;2022-09-20T08:45:01;99636.34;;;22.19;nan
22352;BME280;11343;43.246;27.978;2022-09-20T08:48:11;99642.16;;;22.22;nan
22352;BME280;11343;43.246;27.978;2022-09-20T08:51:18;99649.66;;;21.80;nan
22352;BME280;11343;43.246;27.978;2022-09-20T08:54:26;99641.69;;;21.80;nan
22352;BME280;11343;43.246;27.978;2022-09-20T08:57:35;99641.91;;;22.32;nan
22352;BME280;11343;43.246;27.978;2022-09-20T09:00:42;99625.34;;;24.08;nan
22352;BME280;11343;43.246;27.978;2022-09-20T09:03:49;99624.66;;;25.74;nan
22352;BME280;11343;43.246;27.978;2022-09-20T09:06:55;99623.06;;;26.61;nan
22352;BME280;11343;43.246;27.978;2022-09-20T09:10:01;99622.84;;;26.36;nan
22352;BME280;11343;43.246;27.978;2022-09-20T09:13:09;99631.91;;;25.53;nan
22352;BME280;11343;43.246;27.978;2022-09-20T09:16:29;99625.13;;;24.67;nan
22352;BME280;11343;43.246;27.978;2022-09-20T09:19:45;99618.41;;;24.28;nan
22352;BME280;11343;43.246;27.978;2022-09-20T09:22:57;99614.72;;;23.93;nan
22352;BME280;11343;43.246;27.978;2022-09-20T09:26:04;99603.81;;;23.44;nan
22352;BME280;11343;43.246;27.978;2022-09-20T09:29:14;99598.19;;;23.39;nan
22352;BME280;11343;43.246;27.978;2022-09-20T09:32:22;99606.28;;;23.31;nan
22352;BME280;11343;43.246;27.978;2022-09-20T09:35:30;99613.03;;;23.56;nan
22352;BME280;11343;43.246;27.978;2022-09-20T09:38:36;99607.59;;;23.64;nan
22352;BME280;11343;43.246;27.978;2022-09-20T09:41:42;99626.88;;;23.37;nan
22352;BME280;11343;43.246;27.978;2022-09-20T09:44:49;99622.69;;;23.57;nan
22352;BME280;11343;43.246;27.978;2022-09-20T09:47:56;99624.03;;;23.53;nan
22352;BME280;11343;43.246;27.978;2022-09-20T09:51:07;99615.50;;;23.58;nan
22352;BME280;11343;43.246;27.978;2022-09-20T09:54:13;99620.28;;;23.62;nan
22352;BME280;11343;43.246;27.978;2022-09-20T09:57:27;99620.44;;;23.46;nan
22352;BME280;11343;43.246;27.978;2022-09-20T10:00:36;99626.63;;;23.61;nan
22352;BME280;11343;43.246;27.978;2022-09-20T10:03:50;99616.81;;;23.10;nan
22352;BME280;11343;43.246;27.978;2022-09-20T10:06:59;99611.91;;;23.21;nan
22352;BME280;11343;43.246;27.978;2022-09-20T10:10:08;99622.13;;;22.95;nan
22352;BME280;11343;43.246;27.978;2022-09-20T10:13:21;99616.16;;;22.78;nan
22352;BME280;11343;43.246;27.978;2022-09-20T10:16:29;99614.84;;;22.74;nan
22352;BME280;11343;43.246;27.978;2022-09-20T10:19:45;99610.56;;;22.73;nan
22352;BME280;11343;43.246;27.978;2022-09-20T10:22:53;99610.00;;;22.55;nan
22352;BME280;11343;43.246;27.978;2022-09-20T10:26:23;99599.69;;;22.75;nan
22352;BME280;11343;43.246;27.978;2022-09-20T10:29:37;99611.97;;;22.98;nan
22352;BME280;11343;43.246;27.978;2022-09-20T10:32:49;99609.31;;;23.13;nan
22352;BME280;11343;43.246;27.978;2022-09-20T10:36:03;99605.38;;;23.24;nan
22352;BME280;11343;43.246;27.978;2022-09-20T10:39:15;99605.91;;;23.04;nan
22352;BME280;11343;43.246;27.978;2022-09-20T10:42:24;99596.72;;;22.92;nan
22352;BME280;11343;43.246;27.978;2022-09-20T10:45:50;99594.44;;;23.04;nan
22352;BME280;11343;43.246;27.978;2022-09-20T10:49:20;99595.25;;;23.04;nan
22352;BME280;11343;43.246;27.978;2022-09-20T10:52:32;99602.81;;;23.16;nan
22352;BME280;11343;43.246;27.978;2022-09-20T10:55:43;99592.34;;;23.29;nan
22352;BME280;11343;43.246;27.978;2022-09-20T11:02:15;99598.00;;;22.96;nan
22352;BME280;11343;43.246;27.978;2022-09-20T11:05:27;99602.88;;;22.93;nan
22352;BME280;11343;43.246;27.978;2022-09-20T11:08:35;99596.56;;;23.09;nan
22352;BME280;11343;43.246;27.978;2022-09-20T11:11:42;99602.91;;;23.08;nan
22352;BME280;11343;43.246;27.978;2022-09-20T11:14:51;99591.53;;;22.76;nan
22352;BME280;11343;43.246;27.978;2022-09-20T11:18:00;99592.25;;;22.70;nan
22352;BME280;11343;43.246;27.978;2022-09-20T11:21:08;99599.34;;;22.78;nan
22352;BME280;11343;43.246;27.978;2022-09-20T11:24:19;99584.78;;;23.18;nan
22352;BME280;11343;43.246;27.978;2022-09-20T11:27:28;99587.19;;;23.13;nan
22352;BME280;11343;43.246;27.978;2022-09-20T11:30:39;99581.50;;;23.16;nan
22352;BME280;11343;43.246;27.978;2022-09-20T11:33:45;99585.25;;;22.69;nan
22352;BME280;11343;43.246;27.978;2022-09-20T11:36:53;99584.56;;;22.75;nan
22352;BME280;11343;43.246;27.978;2022-09-20T11:40:06;99581.38;;;22.80;nan
22352;BME280;11343;43.246;27.978;2022-09-20T11:43:16;99573.41;;;22.80;nan
22352;BME280;11343;43.246;27.978;2022-09-20T11:46:22;99570.94;;;22.70;nan
22352;BME280;11343;43.246;27.978;2022-09-20T11:49:40;99578.41;;;22.75;nan
22352;BME280;11343;43.246;27.978;2022-09-20T11:52:52;99581.59;;;22.70;nan
22352;BME280;11343;43.246;27.978;2022-09-20T11:56:04;99575.06;;;22.95;nan
22352;BME280;11343;43.246;27.978;2022-09-20T11:59:19;99575.44;;;22.92;nan
22352;BME280;11343;43.246;27.978;2022-09-20T12:02:29;99574.59;;;22.92;nan
22352;BME280;11343;43.246;27.978;2022-09-20T12:05:39;99589.31;;;22.65;nan
22352;BME280;11343;43.246;27.978;2022-09-20T12:08:48;99574.84;;;22.82;nan
22352;BME280;11343;43.246;27.978;2022-09-20T12:11:56;99578.66;;;22.65;nan
22352;BME280;11343;43.246;27.978;2022-09-20T12:15:04;99576.28;;;22.70;nan
22352;BME280;11343;43.246;27.978;2022-09-20T12:18:25;99565.88;;;22.60;nan
22352;BME280;11343;43.246;27.978;2022-09-20T12:21:47;99577.94;;;22.71;nan
22352;BME280;11343;43.246;27.978;2022-09-20T12:25:34;99577.28;;;22.69;nan
22352;BME280;11343;43.246;27.978;2022-09-20T12:28:40;99578.28;;;22.68;nan
22352;BME280;11343;43.246;27.978;2022-09-20T12:31:46;99574.69;;;22.61;nan
22352;BME280;11343;43.246;27.978;2022-09-20T12:34:52;99575.97;;;22.50;nan
22352;BME280;11343;43.246;27.978;2022-09-20T12:38:03;99570.63;;;22.73;nan
22352;BME280;11343;43.246;27.978;2022-09-20T12:41:22;99579.75;;;22.93;nan
22352;BME280;11343;43.246;27.978;2022-09-20T12:44:31;99588.22;;;22.74;nan
22352;BME280;11343;43.246;27.978;2022-09-20T12:47:39;99587.63;;;22.87;nan
22352;BME280;11343;43.246;27.978;2022-09-20T12:51:05;99579.59;;;22.72;nan
22352;BME280;11343;43.246;27.978;2022-09-20T12:54:47;99580.91;;;22.76;nan
22352;BME280;11343;43.246;27.978;2022-09-20T12:57:55;99575.69;;;22.60;nan
22352;BME280;11343;43.246;27.978;2022-09-20T13:07:52;99571.75;;;22.56;nan
22352;BME280;11343;43.246;27.978;2022-09-20T13:11:07;99579.84;;;22.40;nan
22352;BME280;11343;43.246;27.978;2022-09-20T13:14:19;99577.25;;;22.32;nan
22352;BME280;11343;43.246;27.978;2022-09-20T13:17:27;99584.09;;;22.03;nan
22352;BME280;11343;43.246;27.978;2022-09-20T13:20:34;99581.16;;;21.98;nan
22352;BME280;11343;43.246;27.978;2022-09-20T13:23:44;99584.81;;;21.97;nan
22352;BME280;11343;43.246;27.978;2022-09-20T13:26:51;99582.69;;;21.84;nan
22352;BME280;11343;43.246;27.978;2022-09-20T13:30:08;99583.88;;;21.82;nan
22352;BME280;11343;43.246;27.978;2022-09-20T13:33:15;99594.56;;;21.74;nan
22352;BME280;11343;43.246;27.978;2022-09-20T13:36:25;99597.25;;;21.66;nan
22352;BME280;11343;43.246;27.978;2022-09-20T13:39:33;99593.69;;;21.42;nan
22352;BME280;11343;43.246;27.978;2022-09-20T13:42:40;99592.81;;;21.50;nan
22352;BME280;11343;43.246;27.978;2022-09-20T13:45:50;99601.59;;;21.59;nan
22352;BME280;11343;43.246;27.978;2022-09-20T13:48:58;99589.44;;;21.09;nan
22352;BME280;11343;43.246;27.978;2022-09-20T13:52:19;99590.94;;;21.20;nan
22352;BME280;11343;43.246;27.978;2022-09-20T13:55:28;99592.41;;;21.30;nan
22352;BME280;11343;43.246;27.978;2022-09-20T13:58:34;99603.81;;;21.39;nan
22352;BME280;11343;43.246;27.978;2022-09-20T14:01:41;99591.03;;;21.42;nan
22352;BME280;11343;43.246;27.978;2022-09-20T14:04:49;99597.00;;;21.44;nan
22352;BME280;11343;43.246;27.978;2022-09-20T14:07:56;99594.63;;;21.58;nan
22352;BME280;11343;43.246;27.978;2022-09-20T14:11:04;99587.03;;;21.46;nan
22352;BME280;11343;43.246;27.978;2022-09-20T14:14:10;99604.59;;;21.47;nan
22352;BME280;11343;43.246;27.978;2022-09-20T14:17:22;99602.28;;;21.53;nan
22352;BME280;11343;43.246;27.978;2022-09-20T14:20:28;99610.75;;;21.48;nan
22352;BME280;11343;43.246;27.978;2022-09-20T14:23:47;99610.31;;;21.12;nan
22352;BME280;11343;43.246;27.978;2022-09-20T14:27:02;99603.75;;;20.84;nan
22352;BME280;11343;43.246;27.978;2022-09-20T14:33:29;99602.59;;;20.94;nan
22352;BME280;11343;43.246;27.978;2022-09-20T14:36:35;99610.03;;;20.83;nan
22352;BME280;11343;43.246;27.978;2022-09-20T14:39:44;99612.06;;;20.81;nan
22352;BME280;11343;43.246;27.978;2022-09-20T14:42:52;99619.34;;;20.79;nan
22352;BME280;11343;43.246;27.978;2022-09-20T14:46:02;99611.69;;;20.84;nan
22352;BME280;11343;43.246;27.978;2022-09-20T14:49:19;99610.03;;;20.83;nan
22352;BME280;11343;43.246;27.978;2022-09-20T14:52:28;99627.63;;;20.76;nan
22352;BME280;11343;43.246;27.978;2022-09-20T14:55:36;99624.81;;;20.69;nan
22352;BME280;11343;43.246;27.978;2022-09-20T15:02:10;99619.00;;;20.65;nan
22352;BME280;11343;43.246;27.978;2022-09-20T15:05:19;99628.44;;;20.68;nan
22352;BME280;11343;43.246;27.978;2022-09-20T15:08:26;99630.28;;;20.59;nan
22352;BME280;11343;43.246;27.978;2022-09-20T15:11:32;99627.44;;;20.61;nan
22352;BME280;11343;43.246;27.978;2022-09-20T15:14:37;99629.28;;;20.68;nan
22352;BME280;11343;43.246;27.978;2022-09-20T15:17:44;99631.91;;;20.60;nan
22352;BME280;11343;43.246;27.978;2022-09-20T15:20:52;99629.28;;;20.52;nan
22352;BME280;11343;43.246;27.978;2022-09-20T15:23:57;99633.06;;;20.42;nan
22352;BME280;11343;43.246;27.978;2022-09-20T15:27:03;99636.53;;;20.34;nan
22352;BME280;11343;43.246;27.978;2022-09-20T15:30:09;99642.69;;;20.35;nan
22352;BME280;11343;43.246;27.978;2022-09-20T15:33:15;99641.69;;;20.36;nan
22352;BME280;11343;43.246;27.978;2022-09-20T15:36:22;99652.91;;;20.21;nan
22352;BME280;11343;43.246;27.978;2022-09-20T15:39:34;99653.72;;;20.22;nan
22352;BME280;11343;43.246;27.978;2022-09-20T15:42:40;99659.34;;;20.19;nan
22352;BME280;11343;43.246;27.978;2022-09-20T15:45:47;99658.69;;;20.25;nan
22352;BME280;11343;43.246;27.978;2022-09-20T15:48:53;99652.56;;;20.16;nan
22352;BME280;11343;43.246;27.978;2022-09-20T15:52:00;99650.03;;;20.07;nan
22352;BME280;11343;43.246;27.978;2022-09-20T15:55:06;99651.72;;;20.08;nan
22352;BME280;11343;43.246;27.978;2022-09-20T15:58:12;99667.56;;;20.00;nan
22352;BME280;11343;43.246;27.978;2022-09-20T16:01:18;99657.63;;;19.93;nan
22352;BME280;11343;43.246;27.978;2022-09-20T16:04:23;99656.28;;;19.89;nan
22352;BME280;11343;43.246;27.978;2022-09-20T16:07:31;99658.22;;;19.79;nan
22352;BME280;11343;43.246;27.978;2022-09-20T16:10:36;99660.53;;;19.74;nan
22352;BME280;11343;43.246;27.978;2022-09-20T16:13:42;99663.16;;;19.66;nan
22352;BME280;11343;43.246;27.978;2022-09-20T16:16:48;99665.03;;;19.48;nan
22352;BME280;11343;43.246;27.978;2022-09-20T16:19:53;99670.22;;;19.32;nan
22352;BME280;11343;43.246;27.978;2022-09-20T16:22:59;99673.44;;;19.17;nan
22352;BME280;11343;43.246;27.978;2022-09-20T16:26:05;99678.59;;;19.01;nan
22352;BME280;11343;43.246;27.978;2022-09-20T16:29:11;99681.78;;;18.87;nan
22352;BME280;11343;43.246;27.978;2022-09-20T16:32:16;99681.34;;;18.74;nan
22352;BME280;11343;43.246;27.978;2022-09-20T16:35:21;99685.59;;;18.67;nan
22352;BME280;11343;43.246;27.978;2022-09-20T16:38:28;99680.38;;;18.57;nan
22352;BME280;11343;43.246;27.978;2022-09-20T16:41:34;99680.13;;;18.51;nan
22352;BME280;11343;43.246;27.978;2022-09-20T16:44:41;99691.28;;;18.45;nan
22352;BME280;11343;43.246;27.978;2022-09-20T16:47:49;99701.31;;;18.23;nan
22352;BME280;11343;43.246;27.978;2022-09-20T16:50:54;99710.75;;;17.98;nan
22352;BME280;11343;43.246;27.978;2022-09-20T16:54:02;99703.84;;;17.88;nan
22352;BME280;11343;43.246;27.978;2022-09-20T16:57:08;99711.94;;;17.77;nan
22352;BME280;11343;43.246;27.978;2022-09-20T17:00:14;99710.03;;;17.69;nan
22352;BME280;11343;43.246;27.978;2022-09-20T17:03:24;99708.38;;;17.58;nan
22352;BME280;11343;43.246;27.978;2022-09-20T17:06:30;99710.91;;;17.50;nan
22352;BME280;11343;43.246;27.978;2022-09-20T17:09:45;99718.69;;;17.42;nan
22352;BME280;11343;43.246;27.978;2022-09-20T17:13:16;99721.38;;;17.33;nan
22352;BME280;11343;43.246;27.978;2022-09-20T17:16:32;99715.13;;;17.24;nan
22352;BME280;11343;43.246;27.978;2022-09-20T17:19:38;99723.19;;;17.13;nan
22352;BME280;11343;43.246;27.978;2022-09-20T17:22:43;99723.22;;;17.03;nan
22352;BME280;11343;43.246;27.978;2022-09-20T17:26:01;99733.75;;;16.94;nan
22352;BME280;11343;43.246;27.978;2022-09-20T17:29:10;99726.28;;;16.79;nan
22352;BME280;11343;43.246;27.978;2022-09-20T17:32:17;99727.78;;;16.72;nan
22352;BME280;11343;43.246;27.978;2022-09-20T17:35:23;99724.75;;;16.67;nan
22352;BME280;11343;43.246;27.978;2022-09-20T17:38:33;99736.50;;;16.54;nan
22352;BME280;11343;43.246;27.978;2022-09-20T17:41:40;99740.50;;;16.48;nan